• Join FlightAware (Why Join?)
  • Login
  • US Flag 
06:30PM EDT


 

Airport Tracker/Info


-or-


 

Live Flight TrackerFlight Track Log ✈ SWA1202 ✈ 02-May-2013 ✈ KSJC - KPDX

Flight Track Log - Related Links

Times and Time Zones

All times are in EDT time to prevent confusion due to time zone crossing. See the SWA1202 flight status page for this flight to view local times or setup timezone preferences in your user account.

Time Position Orientation Groundspeed Altitude Reporting Facility
EDT Latitude Longitude Course Direction KTS MPH feet Rate Location/Type
07:39PM 37.4333 -121.9333 38° Northeast 240 276 5,100  Level Northern Cal TRACON
07:40PM 37.3833 -121.8667 133° Southeast 229 264 6,700 2,520 Climbing Northern Cal TRACON
07:41PM 37.3514 -121.8319 139° Southeast 227 261 9,400 3,780 Climbing Oakland Center
07:42PM 37.3133 -121.8925 232° Southwest 250 288 13,200 2,700 Climbing Oakland Center
07:43PM 37.3858 -121.9306 337° Northwest 312 359 15,000 1,080 Climbing Oakland Center
07:44PM 37.6479 -121.9685 354° North  Level FlightAware Approximate
07:44PM 37.4894 -121.9422 355° North 370 426 15,500  Level Oakland Center
07:45PM 37.6014 -121.9561 354° North 400 460 17,700 2,700 Climbing Oakland Center
07:46PM 37.7142 -121.9678 355° North 407 468 21,100 3,120 Climbing Oakland Center
07:47PM 37.8267 -121.9808 355° North 409 471 24,100 2,580 Climbing Oakland Center
07:48PM 37.9411 -121.9922 356° North 416 479 26,500 2,400 Climbing Oakland Center
07:49PM 38.0825 -122.0083 355° North 428 493 29,000 2,400 Climbing Oakland Center
07:50PM 38.2014 -122.0225 355° North 431 496 31,500 2,340 Climbing Oakland Center
07:51PM 38.3169 -122.0356 355° North 421 484 33,800 1,920 Climbing Oakland Center
07:52PM 38.4306 -122.0475 355° North 414 476 35,500 1,020 Climbing Oakland Center
07:53PM 38.5444 -122.0592 355° North 412 474 36,000 240 Climbing Oakland Center
07:54PM 38.6589 -122.0750 354° North 415 478 36,000  Level Oakland Center
07:55PM 38.7747 -122.0886 355° North 411 473 36,000  Level Oakland Center
07:56PM 38.8894 -122.1006 355° North 411 473 36,000  Level Oakland Center
07:57PM 39.0022 -122.1150 354° North 406 467 36,000  Level Oakland Center
07:58PM 39.1381 -122.1281 356° North 406 467 36,000  Level Oakland Center
08:00PM 39.2489 -122.1431 354° North 401 461 36,000  Level Oakland Center
08:01PM 39.3603 -122.1553 355° North 401 461 36,000  Level Oakland Center
08:02PM 39.4717 -122.1667 355° North 401 461 36,000  Level Oakland Center
08:03PM 39.5922 -122.1822 354° North 401 461 36,000  Level Oakland Center
08:04PM 39.7047 -122.1953 355° North 404 465 36,000  Level Oakland Center
08:05PM 39.8167 -122.2089 355° North 404 465 36,000  Level Oakland Center
08:06PM 39.9294 -122.2219 355° North 409 471 36,000  Level Oakland Center
08:07PM 40.0425 -122.2347 355° North 409 471 36,000  Level Oakland Center
08:08PM 40.1503 -122.2469 355° North 412 474 36,000  Level Oakland Center
08:09PM 40.2864 -122.2633 355° North 412 474 36,000  Level Oakland Center
08:10PM 40.3981 -122.2772 355° North 408 470 36,000  Level Oakland Center
08:11PM 40.5097 -122.2917 354° North 405 466 36,000  Level Oakland Center
08:12PM 40.6239 -122.3028 356° North 412 474 36,000  Level Oakland Center
08:13PM 40.7358 -122.3172 354° North 408 470 36,000  Level Oakland Center
08:14PM 40.8489 -122.3314 355° North 409 471 36,000  Level Oakland Center
08:15PM 40.9617 -122.3442 355° North 408 470 36,000  Level Oakland Center
08:16PM 41.0747 -122.3575 355° North 408 470 36,000  Level Oakland Center
08:17PM 41.1875 -122.3767 353° North 409 471 36,000  Level Oakland Center
08:18PM 41.3228 -122.3919 355° North 407 468 36,000  Level Oakland Center
08:19PM 41.4342 -122.3992 357° North 406 467 36,000  Level Oakland Center
08:19PM 41.4581 -122.4064 347° North 412 474 36,000  Level Seattle Center
08:20PM 41.5714 -122.4206 355° North 409 471 36,000  Level Seattle Center
08:21PM 41.6842 -122.4339 355° North 407 468 36,000  Level Seattle Center
08:22PM 41.8189 -122.4517 354° North 404 465 36,000  Level Seattle Center
08:23PM 41.9317 -122.4647 355° North 405 466 36,000  Level Seattle Center
08:24PM 42.0450 -122.4800 354° North 405 466 36,000  Level Seattle Center
08:25PM 42.1594 -122.4933 355° North 409 471 36,000  Level Seattle Center
08:26PM 42.2739 -122.5069 355° North 409 471 36,000  Level Seattle Center
08:27PM 42.3867 -122.5219 354° North 407 468 36,000  Level Seattle Center
08:28PM 42.5003 -122.5372 354° North 407 468 36,000  Level Seattle Center
08:29PM 42.6131 -122.5528 354° North 407 468 36,000  Level Seattle Center
08:30PM 42.7261 -122.5681 354° North 406 467 36,000  Level Seattle Center
08:31PM 42.8397 -122.5825 355° North 411 473 36,000  Level Seattle Center
08:33PM 42.9553 -122.5972 355° North 416 479 36,000  Level Seattle Center
08:34PM 43.0706 -122.6111 355° North 415 478 36,000  Level Seattle Center
08:35PM 43.1864 -122.6256 355° North 417 480 36,000  Level Seattle Center
08:36PM 43.3258 -122.6442 354° North 418 481 36,000  Level Seattle Center
08:37PM 43.4414 -122.6583 355° North 417 480 36,000  Level Seattle Center
08:38PM 43.5567 -122.6722 355° North 416 479 36,000  Level Seattle Center
08:39PM 43.6714 -122.6881 354° North 415 478 36,000  Level Seattle Center
08:40PM 43.7867 -122.7028 355° North 416 479 36,000 -780 Level Seattle Center
08:41PM 43.9003 -122.7189 354° North 414 476 34,500 -2,040 Descending Seattle Center
08:42PM 44.0150 -122.7294 356° North 413 475 31,900 -2,640 Descending Seattle Center
08:43PM 44.1339 -122.7189 North 428 493 29,200 -2,520 Descending Seattle Center
08:44PM 44.2500 -122.7128 North 424 488 26,800 -2,400 Descending Seattle Center
08:45PM 44.3658 -122.7056 North 418 481 24,400 -2,340 Descending Seattle Center
08:46PM 44.4756 -122.7008 North 401 461 22,100 -2,400 Descending Seattle Center
08:47PM 44.6028 -122.6928 North 385 443 19,600 -2,340 Descending Seattle Center
08:47PM 44.6483 -122.6897 North 374 430 18,800 -1,920 Descending Seattle Center
08:48PM 44.7033 -122.6881 North 369 425 17,700 -1,920 Descending Seattle Center
08:49PM 44.8025 -122.6822 North 361 415 15,700 -2,220 Descending Seattle Center
08:50PM 44.8994 -122.6758 North 356 410 13,200 -2,520 Descending Seattle Center
08:51PM 44.9972 -122.6706 North 354 407 10,600 -1,680 Descending Seattle Center
08:52PM 45.0839 -122.6472 11° North 332 382 9,900 -960 Descending Seattle Center
08:53PM 45.1553 -122.6017 24° Northeast 294 338 8,700 -1,380 Descending Seattle Center
08:54PM 45.2256 -122.5581 24° Northeast 280 322 7,200 -1,560 Descending Seattle Center
08:55PM 45.2956 -122.5156 23° Northeast 277 319 5,600 -1,440 Descending Seattle Center
08:56PM 45.3653 -122.4739 23° Northeast 275 316 4,300 -840 Descending Seattle Center
08:57PM 45.4389 -122.4389 18° North 241 277 4,000 -720 Descending Seattle Center
08:58PM 45.4953 -122.4133 18° North 218 251 2,900 -840 Descending Seattle Center
08:59PM 45.5339 -122.4392 335° Northwest 199 229 2,300 -840 Descending Seattle Center
09:00PM 45.5514 -122.4881 297° West 154 177 1,300 -840 Descending Seattle Center
09:01PM 45.5694 -122.5303 301° West 139 160 600 -420 Descending Seattle Center
09:02PM 45.5875 -122.5722 302° West 137 158 500 -120 Descending Seattle Center